Time;durP1;ratioP1;P1;durP2;ratioP2;P2;SDS_P1;SDS_P2;PMS_P1;PMS_P2;Temp;Humidity;BMP_temperature;BMP_pressure;BME280_temperature;BME280_humidity;BME280_pressure;Samples;Min_cycle;Max_cycle;Signal;HPM_P1;HPM_P2
2023/01/02 00:02:50;;;;;;;566.20;241.35;;;3.70;99.90;;;;;;5046248;28;20162;-77
2023/01/02 00:05:26;;;;;;;445.30;202.55;;;3.60;99.90;;;;;;5053907;28;20192;-77
2023/01/02 00:08:12;;;;;;;383.15;177.52;;;3.50;99.90;;;;;;5055354;28;20430;-77
2023/01/02 00:10:49;;;;;;;383.88;171.98;;;3.50;99.90;;;;;;5055110;28;20041;-77
2023/01/02 00:13:22;;;;;;;462.70;198.80;;;3.40;99.90;;;;;;5054992;28;20097;-77
2023/01/02 00:15:52;;;;;;;530.20;235.20;;;3.50;99.90;;;;;;5054956;28;20033;-77
2023/01/02 00:18:20;;;;;;;650.40;288.17;;;3.60;99.90;;;;;;5054823;28;20095;-77
2023/01/02 00:20:49;;;;;;;774.65;336.00;;;3.70;99.90;;;;;;5054835;28;20029;-77
2023/01/02 00:23:16;;;;;;;731.20;325.60;;;3.70;99.90;;;;;;5054868;28;20473;-77
2023/01/02 00:25:47;;;;;;;686.25;301.58;;;3.60;99.90;;;;;;5054549;28;20568;-77
2023/01/02 00:28:13;;;;;;;;;;;3.60;99.90;;;;;;5071893;28;20068;-77
2023/01/02 00:31:18;;;;;;;507.02;215.00;;;3.70;99.90;;;;;;5070541;28;20380;-77
2023/01/02 00:41:50;;;;;;;518.22;245.18;;;3.80;99.90;;;;;;5117707;28;20030;-77
2023/01/02 00:48:17;;;;;;;367.42;174.18;;;4.00;99.90;;;;;;5117582;28;20026;-77
2023/01/02 00:50:49;;;;;;;358.88;171.45;;;3.70;99.90;;;;;;5117276;28;20031;-77
2023/01/02 00:57:16;;;;;;;460.35;208.68;;;3.50;99.90;;;;;;5086539;28;20039;-77
2023/01/02 01:00:13;;;;;;;360.70;171.35;;;3.50;99.90;;;;;;5117209;28;20027;-77
2023/01/02 01:02:41;;;;;;;366.20;169.73;;;3.50;99.90;;;;;;5114397;28;20032;-77
2023/01/02 01:05:29;;;;;;;331.30;157.25;;;3.50;99.90;;;;;;5096729;28;20047;-77
2023/01/02 01:07:58;;;;;;;343.02;159.57;;;3.40;99.90;;;;;;5101320;28;20040;-77
2023/01/02 01:10:26;;;;;;;397.58;170.65;;;3.30;99.90;;;;;;5117013;28;20034;-77
2023/01/02 01:13:16;;;;;;;395.75;177.10;;;3.30;99.90;;;;;;5102288;28;20039;-78
2023/01/02 01:15:52;;;;;;;391.48;182.55;;;3.30;99.90;;;;;;5116867;28;20473;-77
2023/01/02 01:22:34;;;;;;;417.63;182.63;;;3.40;99.90;;;;;;5116429;28;20047;-78
2023/01/02 01:25:10;;;;;;;420.23;190.63;;;3.50;99.90;;;;;;5116131;28;20043;-77
2023/01/02 01:27:46;;;;;;;389.50;178.50;;;3.50;99.90;;;;;;5116779;28;20036;-77
2023/01/02 01:34:32;;;;;;;426.85;192.32;;;3.60;99.90;;;;;;5096441;28;20039;-77
2023/01/02 01:36:58;;;;;;;406.70;194.23;;;3.70;99.90;;;;;;5107129;28;20054;-78
2023/01/02 01:39:58;;;;;;;404.98;190.10;;;3.80;99.90;;;;;;5116561;28;20427;-78
2023/01/02 01:42:32;;;;;;;406.45;191.82;;;3.70;99.90;;;;;;5116581;28;20035;-77
2023/01/02 01:45:15;;;;;;;375.75;177.10;;;3.70;99.90;;;;;;5116275;28;20028;-77
2023/01/02 01:48:00;;;;;;;366.98;171.30;;;3.70;99.90;;;;;;5097292;28;20118;-77
2023/01/02 02:02:24;;;;;;;332.95;154.48;;;3.30;99.90;;;;;;5116160;28;20046;-77
2023/01/02 02:05:23;;;;;;;324.85;152.50;;;3.40;99.90;;;;;;5115720;28;20027;-77
2023/01/02 02:11:48;;;;;;;334.02;152.23;;;3.40;99.90;;;;;;5032858;28;20140;-77
2023/01/02 02:14:15;;;;;;;376.38;170.20;;;3.40;99.90;;;;;;5016440;28;20507;-77
2023/01/02 02:17:04;;;;;;;307.30;143.23;;;3.50;99.90;;;;;;5032073;28;20100;-77
2023/01/02 02:20:09;;;;;;;259.75;125.85;;;3.50;99.90;;;;;;5032524;28;20033;-77
2023/01/02 02:26:59;;;;;;;267.73;121.80;;;3.20;99.90;;;;;;5032929;28;20064;-77
2023/01/02 02:29:49;;;;;;;288.48;130.63;;;3.10;99.90;;;;;;5032567;28;20044;-77
2023/01/02 02:36:36;;;;;;;276.17;132.95;;;2.80;99.90;;;;;;4997392;28;20033;-77
2023/01/02 02:39:52;;;;;;;282.75;128.70;;;2.80;99.90;;;;;;5032505;28;20071;-77
2023/01/02 02:42:54;;;;;;;259.50;123.40;;;2.90;99.90;;;;;;5032323;28;20499;-77
2023/01/02 02:46:03;;;;;;;258.42;122.45;;;3.00;99.90;;;;;;5032481;28;20108;-77
2023/01/02 02:49:03;;;;;;;225.57;111.03;;;2.90;99.90;;;;;;5065697;28;20052;-77
2023/01/02 02:55:19;;;;;;;266.77;122.68;;;2.80;99.90;;;;;;5074407;28;20036;-77
2023/01/02 02:58:16;;;;;;;255.13;124.28;;;2.70;99.90;;;;;;5055332;28;20103;-77
2023/01/02 03:00:50;;;;;;;270.15;126.03;;;2.70;99.90;;;;;;5089780;28;20178;-77
2023/01/02 03:03:27;;;;;;;267.55;131.10;;;2.70;99.90;;;;;;5073299;28;20055;-77
2023/01/02 03:10:31;;;;;;;281.05;132.10;;;2.60;99.90;;;;;;5074677;28;20055;-77
2023/01/02 03:13:09;;;;;;;311.17;146.75;;;2.80;99.90;;;;;;5074350;28;20032;-77
2023/01/02 03:19:58;;;;;;;385.52;175.13;;;2.80;99.90;;;;;;5074544;28;20086;-77
2023/01/02 03:22:35;;;;;;;388.38;172.27;;;3.00;99.90;;;;;;5074112;28;20036;-77
2023/01/02 03:25:11;;;;;;;336.63;154.18;;;2.90;99.90;;;;;;5073979;28;20033;-77
2023/01/02 03:32:13;;;;;;;282.83;132.25;;;2.70;99.90;;;;;;5093710;28;20066;-77
2023/01/02 03:34:50;;;;;;;254.48;121.47;;;2.60;99.90;;;;;;5098392;28;20020;-77
2023/01/02 03:37:25;;;;;;;252.73;118.03;;;2.50;99.90;;;;;;5102504;28;20059;-77
2023/01/02 03:39:55;;;;;;;295.77;141.55;;;2.60;99.90;;;;;;5080453;28;20032;-77
2023/01/02 03:42:44;;;;;;;270.85;127.10;;;2.50;99.90;;;;;;5080241;28;20353;-77
2023/01/02 03:49:20;;;;;;;297.08;138.20;;;2.50;99.90;;;;;;5098422;28;20070;-77
2023/01/02 03:51:50;;;;;;;287.75;132.30;;;2.60;99.90;;;;;;5098141;28;20032;-77
2023/01/02 03:54:28;;;;;;;292.92;137.90;;;2.60;99.90;;;;;;5081845;28;20086;-77
2023/01/02 03:57:08;;;;;;;299.20;137.32;;;2.50;99.90;;;;;;5080308;28;20551;-77
2023/01/02 04:04:23;;;;;;;307.63;141.60;;;2.50;99.90;;;;;;5098152;28;20104;-78
2023/01/02 04:07:10;;;;;;;295.38;136.63;;;2.50;99.90;;;;;;5078494;28;20044;-77
2023/01/02 04:13:43;;;;;;;299.20;136.32;;;2.50;99.90;;;;;;5118229;28;20034;-77
2023/01/02 04:16:45;;;;;;;301.35;136.98;;;2.50;99.90;;;;;;5099917;28;20118;-77
2023/01/02 04:27:31;;;;;;;282.23;132.45;;;2.40;99.90;;;;;;5118349;28;20377;-77
2023/01/02 04:30:45;;;;;;;274.40;126.97;;;2.40;99.90;;;;;;5095863;28;20044;-77
2023/01/02 04:33:15;;;;;;;295.08;141.35;;;2.50;99.90;;;;;;5109868;28;20031;-77
2023/01/02 04:36:02;;;;;;;293.05;141.25;;;2.50;99.90;;;;;;5099065;28;20147;-77
2023/01/02 04:42:48;;;;;;;276.15;128.18;;;2.40;99.90;;;;;;5117637;28;20035;-77
2023/01/02 04:45:19;;;;;;;262.45;126.70;;;2.50;99.90;;;;;;5099452;28;20122;-77
2023/01/02 04:47:49;;;;;;;252.35;122.50;;;2.50;99.90;;;;;;5117433;28;20077;-77
2023/01/02 04:50:17;;;;;;;250.40;117.85;;;2.50;99.90;;;;;;5099215;28;20027;-78
2023/01/02 04:52:54;;;;;;;246.48;111.72;;;2.40;99.90;;;;;;5084514;28;20039;-77
2023/01/02 04:56:04;;;;;;;240.05;117.38;;;2.50;99.90;;;;;;5117325;28;20079;-77
2023/01/02 05:02:46;;;;;;;268.20;126.22;;;2.50;99.90;;;;;;5117521;28;20105;-77
2023/01/02 05:05:13;;;;;;;263.25;122.63;;;2.40;99.90;;;;;;5117207;28;20392;-78
2023/01/02 05:07:52;;;;;;;274.50;131.45;;;2.40;99.90;;;;;;5117379;28;20098;-77
2023/01/02 05:25:42;;;;;;;228.63;105.65;;;2.20;99.90;;;;;;5117114;28;20088;-77
2023/01/02 05:32:18;;;;;;;210.75;100.85;;;2.40;99.90;;;;;;5128183;27;20429;-77
2023/01/02 05:34:53;;;;;;;199.02;95.15;;;2.60;99.90;;;;;;5137164;27;20031;-77
2023/01/02 05:41:59;;;;;;;221.00;100.70;;;2.60;99.90;;;;;;5133026;27;20166;-77
2023/01/02 05:44:30;;;;;;;216.43;105.10;;;2.50;99.90;;;;;;5128287;27;20039;-77
2023/01/02 05:46:59;;;;;;;205.98;99.47;;;2.40;99.90;;;;;;5136944;27;20027;-77
2023/01/02 05:49:27;;;;;;;205.07;96.22;;;2.30;99.90;;;;;;5118380;27;20027;-77
2023/01/02 05:52:00;;;;;;;212.75;101.00;;;2.30;99.90;;;;;;5117759;27;20440;-77
2023/01/02 05:54:36;;;;;;;217.13;101.32;;;2.30;99.90;;;;;;5134750;27;20039;-77
2023/01/02 05:57:07;;;;;;;200.80;97.38;;;2.30;99.90;;;;;;5136493;27;20076;-78
2023/01/02 05:59:34;;;;;;;192.18;95.82;;;2.30;99.90;;;;;;5118384;27;20027;-77
2023/01/02 06:02:04;;;;;;;197.35;94.97;;;2.30;99.90;;;;;;5118095;27;20023;-77
2023/01/02 06:08:59;;;;;;;205.02;98.90;;;2.30;99.90;;;;;;5136834;27;20573;-77
2023/01/02 06:11:28;;;;;;;204.25;99.53;;;2.20;99.90;;;;;;5118214;27;20031;-77
2023/01/02 06:14:09;;;;;;;212.80;98.40;;;2.30;99.90;;;;;;5117958;27;20044;-77
2023/01/02 06:16:41;;;;;;;202.90;91.82;;;2.30;99.90;;;;;;5128088;27;20416;-77
2023/01/02 06:19:07;;;;;;;205.75;97.80;;;2.30;99.90;;;;;;5101655;27;20038;-77
2023/01/02 06:21:48;;;;;;;181.35;91.55;;;2.30;99.90;;;;;;5135673;27;20551;-77
2023/01/02 06:24:14;;;;;;;198.32;96.03;;;2.30;99.90;;;;;;5136197;27;20023;-77
2023/01/02 06:26:57;;;;;;;190.68;89.90;;;2.30;99.90;;;;;;5136195;27;20058;-77
2023/01/02 06:33:19;;;;;;;196.35;90.00;;;2.30;99.90;;;;;;5115432;28;20035;-77
2023/01/02 06:47:34;;;;;;;184.73;86.28;;;2.30;99.90;;;;;;5095037;28;20065;-77
2023/01/02 06:57:52;;;;;;;164.98;81.85;;;2.40;99.90;;;;;;5094837;28;20035;-77
2023/01/02 07:00:59;;;;;;;186.65;88.22;;;2.50;99.90;;;;;;5094673;28;20028;-77
2023/01/02 07:07:03;;;;;;;189.93;91.47;;;2.90;99.90;;;;;;5031846;28;20415;-77
2023/01/02 07:17:39;;;;;;;199.40;92.28;;;3.30;99.90;;;;;;5032027;28;20052;-77
2023/01/02 07:20:11;;;;;;;203.68;90.70;;;3.60;99.90;;;;;;5031774;28;20088;-77
2023/01/02 07:22:40;;;;;;;190.93;87.70;;;3.70;99.90;;;;;;5031889;28;20033;-77
2023/01/02 07:25:08;;;;;;;184.20;87.72;;;3.80;99.90;;;;;;5031789;28;20056;-77
2023/01/02 07:27:36;;;;;;;180.27;87.70;;;4.10;99.90;;;;;;5030454;28;20091;-77
2023/01/02 07:30:04;;;;;;;175.43;83.57;;;4.20;99.90;;;;;;5031480;28;20436;-77
2023/01/02 07:32:42;;;;;;;195.45;89.78;;;4.50;99.90;;;;;;5031887;28;20046;-76
2023/01/02 07:39:24;;;;;;;177.00;85.60;;;5.00;99.90;;;;;;5031688;28;20216;-77
2023/01/02 07:41:54;;;;;;;181.27;85.75;;;5.20;99.90;;;;;;5031377;28;20045;-77
2023/01/02 07:44:31;;;;;;;174.95;83.65;;;5.50;99.90;;;;;;5049169;28;20080;-77
2023/01/02 07:47:09;;;;;;;178.23;81.68;;;6.00;99.90;;;;;;5051455;28;20037;-76
2023/01/02 07:49:37;;;;;;;168.10;82.32;;;6.40;99.90;;;;;;5051229;28;20033;-76
2023/01/02 07:52:08;;;;;;;169.65;82.55;;;6.70;99.90;;;;;;5051634;28;20573;-76
2023/01/02 07:54:38;;;;;;;164.65;82.88;;;7.00;99.90;;;;;;5051530;28;20049;-77
2023/01/02 08:01:05;;;;;;;164.35;80.25;;;7.80;99.90;;;;;;5051653;28;20052;-76
2023/01/02 08:03:37;;;;;;;181.90;86.72;;;8.50;99.90;;;;;;5051357;28;20048;-76
2023/01/02 08:06:12;;;;;;;177.57;86.45;;;8.30;99.90;;;;;;5035066;28;20192;-77
2023/01/02 08:08:48;;;;;;;173.02;89.95;;;8.50;99.90;;;;;;5051527;28;20029;-76
2023/01/02 08:11:21;;;;;;;176.90;89.97;;;8.50;99.90;;;;;;5051399;28;20087;-76
2023/01/02 08:13:49;;;;;;;172.88;92.43;;;8.30;99.90;;;;;;5104642;28;20036;-76
2023/01/02 08:16:33;;;;;;;187.15;102.43;;;8.70;99.90;;;;;;5117124;28;20153;-76
2023/01/02 08:19:20;;;;;;;204.60;107.85;;;9.40;99.90;;;;;;5014907;28;20125;-76
2023/01/02 08:25:40;;;;;;;240.15;123.35;;;10.50;95.80;;;;;;5015299;28;20081;-76
2023/01/02 08:28:28;;;;;;;237.77;126.55;;;10.70;95.80;;;;;;5014038;28;20029;-75
2023/01/02 08:31:02;;;;;;;233.63;128.47;;;11.20;96.10;;;;;;5005650;28;20036;-76
2023/01/02 08:34:20;;;;;;;245.68;131.77;;;12.50;91.00;;;;;;4929011;29;20362;-76
2023/01/02 08:44:01;;;;;;;;;;;12.90;84.10;;;;;;4919696;29;20080;-74
2023/01/02 08:50:28;;;;;;;249.65;131.95;;;13.80;79.20;;;;;;5013303;28;20035;-76
2023/01/02 09:04:08;;;;;;;202.23;110.05;;;14.40;77.10;;;;;;5074233;28;20115;-76
2023/01/02 09:06:43;;;;;;;161.68;94.90;;;14.50;73.20;;;;;;5074228;28;20500;-76
2023/01/02 09:09:17;;;;;;;178.20;101.22;;;14.70;74.80;;;;;;5056418;28;20048;-76
2023/01/02 09:12:13;;;;;;;169.32;97.90;;;14.20;77.30;;;;;;5074040;28;20041;-76
2023/01/02 09:14:58;;;;;;;152.10;87.82;;;14.60;74.40;;;;;;5072871;28;20081;-76
2023/01/02 09:17:30;;;;;;;151.80;88.03;;;14.70;74.70;;;;;;5056566;28;20028;-76
2023/01/02 09:23:13;;;;;;;156.45;90.18;;;14.90;75.60;;;;;;5073519;28;20556;-76
2023/01/02 09:26:17;;;;;;;153.38;89.65;;;15.20;72.80;;;;;;5061088;28;20029;-76
2023/01/02 09:28:56;;;;;;;136.95;81.30;;;15.20;72.60;;;;;;5071312;28;20112;-76
2023/01/02 09:31:30;;;;;;;143.13;82.93;;;15.50;72.70;;;;;;5094176;28;20047;-77
2023/01/02 09:34:00;;;;;;;138.68;85.13;;;16.20;70.80;;;;;;5078603;28;20082;-76
2023/01/02 09:36:29;;;;;;;142.25;84.60;;;16.60;69.40;;;;;;5078316;28;20048;-76
2023/01/02 09:38:59;;;;;;;146.73;85.35;;;16.70;67.80;;;;;;5078133;28;20032;-77
2023/01/02 09:41:45;;;;;;;;;;;16.90;67.60;;;;;;5078494;28;20028;-77
2023/01/02 09:48:31;;;;;;;130.43;78.32;;;17.90;62.50;;;;;;5096192;28;20031;-77
2023/01/02 09:51:04;;;;;;;137.30;84.97;;;17.90;60.90;;;;;;5095781;28;20032;-77
2023/01/02 09:53:58;;;;;;;133.60;78.60;;;18.10;59.50;;;;;;5095968;28;20098;-77
2023/01/02 09:56:37;;;;;;;130.50;79.85;;;17.80;60.90;;;;;;5095644;28;20024;-77
2023/01/02 10:03:38;;;;;;;109.60;67.30;;;17.70;62.00;;;;;;5095749;28;20042;-77
2023/01/02 10:10:13;;;;;;;102.32;60.45;;;18.60;59.30;;;;;;5095755;28;20027;-77
2023/01/02 10:13:32;;;;;;;100.22;58.25;;;18.90;58.80;;;;;;5095438;28;20063;-77
2023/01/02 10:16:44;;;;;;;95.03;57.33;;;19.10;57.60;;;;;;5095249;28;20034;-76
2023/01/02 10:19:55;;;;;;;96.35;57.03;;;19.30;56.90;;;;;;5062556;28;20036;-77
2023/01/02 10:22:35;;;;;;;88.20;53.92;;;18.00;59.80;;;;;;5095253;28;20031;-77
2023/01/02 10:29:42;;;;;;;77.57;49.75;;;18.70;57.10;;;;;;5095214;28;20263;-77
2023/01/02 10:32:21;;;;;;;83.07;52.40;;;19.10;57.70;;;;;;5074913;28;20039;-77
2023/01/02 10:35:09;;;;;;;85.35;51.45;;;19.40;56.90;;;;;;5074733;28;20551;-77
2023/01/02 10:37:55;;;;;;;90.20;53.90;;;19.30;57.20;;;;;;5092538;28;20044;-77
2023/01/02 10:44:27;;;;;;;88.25;51.25;;;19.40;56.00;;;;;;5092756;28;20014;-76
2023/01/02 10:46:55;;;;;;;81.30;48.25;;;19.70;56.60;;;;;;5074612;28;20024;-76
2023/01/02 10:49:28;;;;;;;79.00;48.47;;;19.90;55.30;;;;;;5074697;28;20095;-77
2023/01/02 10:52:20;;;;;;;81.05;47.88;;;19.70;54.60;;;;;;5074335;28;20043;-77
2023/01/02 10:54:49;;;;;;;90.68;49.47;;;19.70;54.00;;;;;;5076910;28;20032;-77
2023/01/02 11:01:28;;;;;;;82.57;48.90;;;20.00;56.10;;;;;;5071869;28;20134;-77
2023/01/02 11:08:36;;;;;;;80.97;46.58;;;21.00;53.90;;;;;;5072379;28;20031;-77
2023/01/02 11:11:19;;;;;;;79.55;43.92;;;21.80;51.30;;;;;;5072002;28;20036;-77
2023/01/02 11:14:30;;;;;;;70.57;41.17;;;22.10;49.60;;;;;;5071622;28;20035;-77
2023/01/02 11:21:04;;;;;;;71.90;41.88;;;22.90;47.70;;;;;;5071919;28;20437;-76
2023/01/02 11:24:07;;;;;;;69.25;42.47;;;23.20;46.10;;;;;;5066176;28;20044;-76
2023/01/02 11:26:44;;;;;;;70.10;39.63;;;23.50;45.30;;;;;;5071824;28;20052;-76
2023/01/02 11:29:29;;;;;;;66.82;40.63;;;23.20;44.20;;;;;;5071754;28;20034;-76
2023/01/02 11:36:08;;;;;;;62.03;39.70;;;22.30;46.20;;;;;;5074003;28;20033;-76
2023/01/02 11:38:55;;;;;;;65.75;37.00;;;23.40;45.10;;;;;;5031674;28;20130;-76
2023/01/02 11:45:20;;;;;;;47.25;29.25;;;24.20;42.60;;;;;;4991939;28;20092;-77
2023/01/02 11:48:10;;;;;;;50.50;25.23;;;24.20;41.00;;;;;;4975508;28;20133;-77
2023/01/02 11:50:38;;;;;;;43.05;26.10;;;24.20;40.90;;;;;;4993804;28;20030;-77
2023/01/02 11:53:29;;;;;;;40.83;26.92;;;24.40;40.70;;;;;;4996384;28;20046;-77
2023/01/02 12:00:01;;;;;;;46.90;28.85;;;24.60;39.50;;;;;;5015381;28;20084;-77
2023/01/02 12:03:17;;;;;;;80.85;46.65;;;24.70;39.90;;;;;;5014995;28;20034;-76
2023/01/02 12:10:03;;;;;;;99.82;53.95;;;24.90;40.20;;;;;;4918762;29;20634;-77
2023/01/02 12:12:56;;;;;;;86.43;50.38;;;25.90;38.40;;;;;;4918389;29;20067;-76
2023/01/02 12:23:47;;;;;;;74.50;44.22;;;24.70;39.20;;;;;;4995170;28;20073;-77
2023/01/02 12:26:48;;;;;;;73.75;44.83;;;24.30;40.20;;;;;;4970404;28;20066;-77
2023/01/02 12:29:41;;;;;;;72.18;44.97;;;24.10;41.00;;;;;;4995469;28;20042;-77
2023/01/02 12:32:31;;;;;;;74.72;44.70;;;23.60;41.90;;;;;;4995061;28;20511;-77
2023/01/02 12:39:12;;;;;;;69.53;41.25;;;22.50;44.40;;;;;;5014803;28;20435;-76
2023/01/02 12:57:40;;;;;;;61.95;37.03;;;24.40;41.30;;;;;;5054331;28;20418;-77
2023/01/02 13:08:51;;;;;;;56.00;33.70;;;24.50;40.00;;;;;;5033998;28;20060;-77
2023/01/02 13:11:42;;;;;;;57.13;32.88;;;24.00;40.90;;;;;;5032006;28;20536;-77
2023/01/02 13:18:24;;;;;;;52.10;29.98;;;22.80;43.30;;;;;;5051376;28;20086;-76
2023/01/02 13:21:19;;;;;;;49.00;29.58;;;22.70;43.00;;;;;;5062452;28;20040;-76
2023/01/02 13:27:29;;;;;;;53.80;31.00;;;22.10;45.30;;;;;;5046482;28;20048;-76
2023/01/02 13:30:35;;;;;;;44.65;29.15;;;21.90;45.40;;;;;;5028202;28;20055;-76
2023/01/02 13:37:18;;;;;;;50.83;30.92;;;20.90;47.40;;;;;;5034995;28;20087;-76
2023/01/02 13:40:03;;;;;;;57.60;33.15;;;20.60;49.10;;;;;;5053435;28;20040;-76
2023/01/02 13:50:43;;;;;;;80.85;39.58;;;19.80;52.20;;;;;;5052877;28;20059;-76
2023/01/02 13:54:19;;;;;;;70.65;39.85;;;18.90;54.60;;;;;;5053053;28;20032;-76
2023/01/02 13:57:30;;;;;;;73.60;40.72;;;18.60;55.90;;;;;;5061195;28;20055;-76
2023/01/02 14:00:32;;;;;;;76.90;43.00;;;18.30;57.00;;;;;;5116088;28;20091;-76
2023/01/02 14:07:03;;;;;;;95.03;50.83;;;18.00;58.20;;;;;;5116083;28;20023;-76
2023/01/02 14:10:11;;;;;;;68.10;40.28;;;18.00;59.30;;;;;;5116057;28;20058;-74
2023/01/02 14:17:03;;;;;;;71.68;39.88;;;18.40;59.40;;;;;;5116055;28;20507;-76
2023/01/02 14:19:33;;;;;;;71.95;39.28;;;18.70;59.00;;;;;;5079598;28;20039;-76
2023/01/02 14:25:52;;;;;;;73.50;42.55;;;18.90;58.50;;;;;;5115956;28;20070;-76
2023/01/02 14:28:58;;;;;;;78.68;41.70;;;19.20;58.90;;;;;;5115528;28;20020;-76
2023/01/02 14:31:38;;;;;;;77.90;43.15;;;19.20;58.40;;;;;;5131167;27;20437;-76
2023/01/02 14:34:06;;;;;;;77.25;42.17;;;19.10;58.80;;;;;;5117071;27;20046;-76
2023/01/02 14:44:26;;;;;;;84.47;47.35;;;18.90;60.20;;;;;;5032619;28;20463;-76
2023/01/02 14:50:50;;;;;;;95.32;51.42;;;18.90;59.00;;;;;;5012571;28;20108;-76
2023/01/02 14:53:48;;;;;;;;;;;18.10;61.30;;;;;;5012972;28;20025;-76
2023/01/02 15:00:32;;;;;;;86.95;47.42;;;17.30;64.00;;;;;;4992696;28;20436;-76
2023/01/02 15:03:35;;;;;;;87.40;47.70;;;16.90;65.70;;;;;;4976243;28;20112;-76
2023/01/02 15:10:20;;;;;;;82.05;44.95;;;16.00;69.80;;;;;;4992908;28;20062;-76
2023/01/02 15:13:16;;;;;;;92.55;48.42;;;15.00;74.30;;;;;;4992376;28;20686;-76
2023/01/02 15:20:03;;;;;;;123.53;63.28;;;14.30;86.90;;;;;;4915570;29;20051;-76
2023/01/02 15:22:59;;;;;;;111.13;58.97;;;13.90;91.30;;;;;;4915428;29;20383;-77
2023/01/02 15:25:40;;;;;;;108.20;63.50;;;13.80;91.50;;;;;;4920521;29;20142;-77
2023/01/02 15:28:30;;;;;;;98.32;57.95;;;13.30;94.10;;;;;;4906812;29;20063;-76
2023/01/02 15:34:52;;;;;;;76.55;41.50;;;12.60;96.30;;;;;;5018874;28;20093;-76
2023/01/02 15:37:24;;;;;;;69.50;38.60;;;12.20;98.90;;;;;;5017890;28;20098;-76
2023/01/02 15:39:52;;;;;;;69.18;40.53;;;12.00;99.80;;;;;;5018517;28;20122;-76
2023/01/02 15:49:17;;;;;;;88.47;50.45;;;11.60;99.90;;;;;;4998541;28;20054;-76
2023/01/02 16:04:25;;;;;;;107.55;54.72;;;10.90;99.90;;;;;;5038335;28;20092;-76
2023/01/02 16:06:56;;;;;;;83.88;46.58;;;10.70;99.90;;;;;;5038031;28;20501;-76
2023/01/02 16:09:27;;;;;;;82.88;46.00;;;10.50;99.90;;;;;;5021655;28;20503;-76
2023/01/02 16:12:05;;;;;;;118.68;62.28;;;10.30;99.90;;;;;;5037842;28;20045;-77
2023/01/02 16:18:59;;;;;;;111.85;56.15;;;10.00;99.90;;;;;;5037705;28;20037;-76
2023/01/02 16:21:31;;;;;;;91.40;48.47;;;9.90;99.90;;;;;;5037609;28;20050;-76
2023/01/02 16:24:05;;;;;;;83.72;46.25;;;10.00;99.90;;;;;;5037931;28;20045;-77
2023/01/02 16:26:43;;;;;;;90.85;46.97;;;9.90;99.90;;;;;;5079200;28;20068;-76
2023/01/02 16:33:33;;;;;;;127.55;65.78;;;9.70;99.90;;;;;;5080615;28;20035;-77
2023/01/02 16:36:28;;;;;;;127.18;63.20;;;9.50;99.90;;;;;;5060438;28;20028;-77
2023/01/02 16:43:01;;;;;;;143.30;70.40;;;9.20;99.90;;;;;;5077289;28;20075;-77
2023/01/02 16:45:53;;;;;;;141.63;71.18;;;9.10;99.90;;;;;;5055929;28;20482;-77
2023/01/02 16:48:30;;;;;;;130.80;66.07;;;9.10;99.90;;;;;;5077051;28;20024;-77
2023/01/02 16:51:01;;;;;;;138.75;74.35;;;8.90;99.90;;;;;;5041509;28;20102;-77
2023/01/02 16:53:30;;;;;;;195.55;96.50;;;9.00;99.90;;;;;;5076393;28;20471;-77
2023/01/02 16:56:30;;;;;;;184.55;89.82;;;8.90;99.90;;;;;;5039086;28;20047;-77
2023/01/02 17:02:40;;;;;;;157.60;77.03;;;8.90;99.90;;;;;;5076346;28;20032;-77
2023/01/02 17:05:39;;;;;;;177.68;87.13;;;8.60;99.90;;;;;;5060327;28;20052;-77
2023/01/02 17:08:07;;;;;;;186.63;90.90;;;8.70;99.90;;;;;;5076708;28;20032;-78
2023/01/02 17:10:37;;;;;;;194.50;92.38;;;8.60;99.90;;;;;;5076739;28;20028;-77
2023/01/02 17:17:00;;;;;;;196.48;93.47;;;8.50;99.90;;;;;;5076599;28;20039;-78
2023/01/02 17:19:46;;;;;;;197.10;95.38;;;8.50;99.90;;;;;;5076329;28;20059;-78
2023/01/02 17:22:17;;;;;;;189.50;96.00;;;8.30;99.90;;;;;;5076131;28;20037;-78
2023/01/02 17:24:48;;;;;;;180.32;87.93;;;8.20;99.90;;;;;;5072496;28;20128;-78
2023/01/02 17:27:20;;;;;;;169.60;86.40;;;8.00;99.90;;;;;;5060104;28;20040;-78
2023/01/02 17:29:48;;;;;;;197.82;101.07;;;7.90;99.90;;;;;;5076540;28;20017;-78
2023/01/02 17:32:23;;;;;;;152.50;76.25;;;7.80;99.90;;;;;;5110805;28;20035;-78
2023/01/02 17:34:54;;;;;;;181.57;88.65;;;7.80;99.90;;;;;;5098712;28;20060;-78
2023/01/02 17:37:26;;;;;;;173.90;86.93;;;7.70;99.90;;;;;;5116980;28;20099;-78
2023/01/02 17:40:43;;;;;;;162.95;83.55;;;7.60;99.90;;;;;;5045578;28;20135;-78
2023/01/02 17:47:03;;;;;;;254.55;131.32;;;7.50;99.90;;;;;;5073180;28;20390;-77
2023/01/02 17:50:34;;;;;;;221.43;115.72;;;7.50;99.90;;;;;;5078375;28;20377;-78
2023/01/02 17:53:35;;;;;;;215.82;108.93;;;7.50;99.90;;;;;;5073261;28;20082;-77
2023/01/02 17:56:11;;;;;;;235.07;120.72;;;7.40;99.90;;;;;;5072754;28;20091;-77
2023/01/02 17:58:42;;;;;;;262.92;134.30;;;7.30;99.90;;;;;;5039246;28;20052;-77
2023/01/02 18:01:18;;;;;;;203.25;107.60;;;7.30;99.90;;;;;;5056632;28;20382;-78
2023/01/02 18:03:51;;;;;;;215.73;108.05;;;7.20;99.90;;;;;;5056822;28;20078;-77
2023/01/02 18:06:26;;;;;;;202.98;103.13;;;7.20;99.90;;;;;;5073152;28;20104;-77
2023/01/02 18:08:57;;;;;;;226.35;115.82;;;7.10;99.90;;;;;;5056503;28;20074;-77
2023/01/02 18:11:31;;;;;;;216.88;114.90;;;7.20;99.90;;;;;;5073181;28;20479;-77
2023/01/02 18:14:20;;;;;;;258.58;129.63;;;7.10;99.90;;;;;;5072670;28;20041;-77
2023/01/02 18:24:34;;;;;;;349.33;186.52;;;7.20;99.90;;;;;;5072995;28;20043;-77
2023/01/02 18:30:30;;;;;;;280.05;139.70;;;6.90;99.90;;;;;;5085588;28;20024;-78
2023/01/02 18:33:11;;;;;;;332.38;161.50;;;6.90;99.90;;;;;;5095168;28;20379;-77
2023/01/02 18:35:44;;;;;;;312.95;151.93;;;6.90;99.90;;;;;;5077103;28;20043;-77
2023/01/02 18:39:04;;;;;;;321.33;165.52;;;7.00;99.90;;;;;;5094813;28;20359;-77
2023/01/02 18:42:25;;;;;;;320.67;163.60;;;6.90;99.90;;;;;;5094612;28;20535;-78
2023/01/02 18:45:00;;;;;;;365.58;184.65;;;6.70;99.90;;;;;;5094994;28;20493;-78
2023/01/02 18:47:36;;;;;;;345.63;173.18;;;6.70;99.90;;;;;;5094406;28;20044;-77
2023/01/02 18:50:08;;;;;;;345.60;174.43;;;6.50;99.90;;;;;;5095071;28;20085;-78
2023/01/02 18:52:58;;;;;;;318.55;161.18;;;6.60;99.90;;;;;;5094765;28;20048;-78
2023/01/02 18:59:49;;;;;;;361.30;180.25;;;6.40;99.90;;;;;;5094490;28;20031;-78
2023/01/02 19:02:38;;;;;;;385.27;195.95;;;6.40;99.90;;;;;;5094785;28;20035;-78
2023/01/02 19:09:09;;;;;;;314.48;160.57;;;6.40;99.90;;;;;;5094900;28;20042;-77
2023/01/02 19:14:42;;;;;;;330.90;167.25;;;6.40;99.90;;;;;;5094672;28;20028;-77
2023/01/02 19:17:36;;;;;;;289.50;148.73;;;6.30;99.90;;;;;;5060668;28;20128;-77
2023/01/02 19:24:28;;;;;;;272.40;136.75;;;6.30;99.90;;;;;;5094502;28;20066;-77
2023/01/02 19:26:59;;;;;;;235.95;125.93;;;6.10;99.90;;;;;;5094406;28;20082;-77
2023/01/02 19:29:29;;;;;;;247.45;130.48;;;6.00;99.90;;;;;;5076867;28;20595;-77
2023/01/02 19:32:17;;;;;;;280.33;143.63;;;6.00;99.90;;;;;;5094296;28;20024;-77
2023/01/02 19:38:45;;;;;;;266.30;132.15;;;5.90;99.90;;;;;;5094648;28;20030;-77
2023/01/02 19:42:18;;;;;;;260.50;134.25;;;5.90;99.90;;;;;;5094518;28;20020;-77
2023/01/02 19:44:14;;;;;;;335.63;168.68;;;5.90;99.90;;;;;;5078647;28;20047;-78
2023/01/02 19:47:20;;;;;;;350.75;179.18;;;5.80;99.90;;;;;;5076430;28;20062;-77
2023/01/02 19:53:46;;;;;;;412.40;216.13;;;6.00;99.90;;;;;;5093955;28;20074;-77
2023/01/02 19:56:23;;;;;;;432.33;222.82;;;6.00;99.90;;;;;;5076215;28;20024;-77
2023/01/02 19:58:53;;;;;;;419.48;214.88;;;6.00;99.90;;;;;;5088032;28;20033;-77
2023/01/02 20:01:27;;;;;;;360.17;183.77;;;5.90;99.90;;;;;;5076414;28;20028;-77
2023/01/02 20:03:59;;;;;;;343.70;173.73;;;5.90;99.90;;;;;;5094208;28;20040;-77
2023/01/02 20:06:34;;;;;;;403.58;205.02;;;5.90;99.90;;;;;;5076267;28;20036;-77
2023/01/02 20:09:00;;;;;;;324.77;165.48;;;5.80;99.90;;;;;;5094216;28;20119;-77
2023/01/02 20:15:57;;;;;;;318.50;159.30;;;5.90;99.90;;;;;;5098362;28;20066;-77
2023/01/02 20:18:29;;;;;;;317.67;158.32;;;5.90;99.90;;;;;;5097844;28;20424;-77
2023/01/02 20:32:41;;;;;;;307.73;151.23;;;5.80;99.90;;;;;;5077345;28;20378;-77
2023/01/02 20:35:19;;;;;;;308.45;153.10;;;5.70;99.90;;;;;;5061184;28;20490;-77
2023/01/02 20:37:51;;;;;;;320.17;161.13;;;5.70;99.90;;;;;;5077195;28;20024;-77
2023/01/02 20:40:24;;;;;;;365.08;185.00;;;5.60;99.90;;;;;;5076891;28;20036;-77
2023/01/02 20:42:54;;;;;;;408.95;214.07;;;5.70;99.90;;;;;;5076959;28;20032;-77